createdAt,value
2024-05-09T00:00:48.366Z,54.66
2024-05-09T00:03:34.610Z,54.93
2024-05-09T00:06:21.194Z,54.36
2024-05-09T00:09:07.530Z,54.80
2024-05-09T00:11:54.073Z,54.51
2024-05-09T00:14:41.116Z,54.69
2024-05-09T00:17:27.897Z,54.56
2024-05-09T00:20:20.470Z,55.11
2024-05-09T00:23:12.328Z,55.08
2024-05-09T00:26:00.037Z,54.93
2024-05-09T00:28:46.523Z,55.01
2024-05-09T00:31:32.931Z,55.23
2024-05-09T00:34:19.364Z,55.18
2024-05-09T00:37:06.082Z,55.02
2024-05-09T00:39:52.900Z,55.03
2024-05-09T00:42:39.661Z,54.85
2024-05-09T00:45:25.882Z,55.19
2024-05-09T00:48:15.266Z,55.04
2024-05-09T00:51:04.110Z,55.11
2024-05-09T00:53:50.402Z,55.02
2024-05-09T00:56:36.579Z,55.04
2024-05-09T00:59:23.893Z,55.42
2024-05-09T01:02:10.786Z,55.13
2024-05-09T01:04:57.500Z,54.97
2024-05-09T01:07:44.229Z,55.13
2024-05-09T01:10:34.805Z,55.19
2024-05-09T01:13:21.874Z,55.21
2024-05-09T01:16:08.051Z,55.01
2024-05-09T01:18:54.126Z,54.89
2024-05-09T01:21:41.715Z,55.60
2024-05-09T01:24:27.814Z,55.31
2024-05-09T01:27:13.847Z,55.05
2024-05-09T01:29:59.958Z,55.49
2024-05-09T01:32:46.410Z,55.14
2024-05-09T01:35:33.121Z,55.43
2024-05-09T01:38:20.128Z,55.12
2024-05-09T01:41:06.630Z,55.44
2024-05-09T01:43:53.301Z,55.55
2024-05-09T01:46:39.555Z,55.71
2024-05-09T01:49:25.748Z,55.58
2024-05-09T01:52:12.090Z,55.41
2024-05-09T01:54:58.374Z,55.97
2024-05-09T01:57:45.107Z,55.84
2024-05-09T02:00:39.235Z,56.00
2024-05-09T02:03:28.101Z,55.74
2024-05-09T02:06:14.607Z,55.90
2024-05-09T02:09:01.136Z,56.14
2024-05-09T02:11:47.903Z,56.43
2024-05-09T02:14:34.278Z,56.40
2024-05-09T02:17:20.952Z,56.63
2024-05-09T02:20:10.779Z,56.42
2024-05-09T02:22:59.948Z,56.44
2024-05-09T02:25:46.368Z,56.81
2024-05-09T02:28:32.545Z,56.92
2024-05-09T02:31:18.574Z,56.72
2024-05-09T02:34:04.794Z,56.42
2024-05-09T02:36:51.259Z,56.72
2024-05-09T02:39:37.192Z,56.73
2024-05-09T02:42:23.357Z,56.96
2024-05-09T02:45:09.607Z,57.12
2024-05-09T02:47:55.851Z,56.89
2024-05-09T02:50:44.397Z,56.99
2024-05-09T02:53:31.002Z,57.07
2024-05-09T02:56:17.398Z,57.52
2024-05-09T02:59:03.821Z,57.31
2024-05-09T03:01:50.021Z,57.20
2024-05-09T03:04:36.642Z,57.46
2024-05-09T03:07:23.095Z,57.53
2024-05-09T03:10:14.977Z,57.41
2024-05-09T03:13:09.381Z,57.59
2024-05-09T03:15:55.581Z,57.25
2024-05-09T03:18:41.481Z,57.23
2024-05-09T03:21:27.946Z,57.41
2024-05-09T03:24:14.056Z,57.54
2024-05-09T03:27:00.044Z,57.77
2024-05-09T03:29:46.159Z,57.65
2024-05-09T03:32:32.487Z,57.99
2024-05-09T03:35:18.941Z,57.60
2024-05-09T03:38:05.688Z,58.01
2024-05-09T03:40:52.505Z,57.88
2024-05-09T03:43:38.651Z,57.75
2024-05-09T03:46:25.179Z,57.88
2024-05-09T03:49:11.568Z,57.84
2024-05-09T03:51:58.081Z,58.03
2024-05-09T03:54:47.586Z,58.29
2024-05-09T03:57:33.725Z,58.05
2024-05-09T04:00:30.025Z,58.33
2024-05-09T04:03:21.584Z,58.07
2024-05-09T04:06:08.070Z,58.06
2024-05-09T04:08:55.111Z,58.28
2024-05-09T04:11:41.979Z,58.12
2024-05-09T04:14:28.528Z,58.27
2024-05-09T04:17:15.038Z,58.24
2024-05-09T04:20:01.626Z,58.26
2024-05-09T04:22:48.247Z,58.27
2024-05-09T04:25:34.834Z,58.58
2024-05-09T04:28:21.499Z,58.31
2024-05-09T04:31:08.012Z,58.64
2024-05-09T04:33:54.228Z,58.75
2024-05-09T04:36:43.966Z,58.69
2024-05-09T04:39:31.177Z,58.51
2024-05-09T04:42:17.030Z,58.88
2024-05-09T04:45:03.240Z,58.74
2024-05-09T04:47:49.612Z,58.81
2024-05-09T04:50:38.702Z,58.67
2024-05-09T04:53:25.950Z,58.81
2024-05-09T04:56:12.501Z,58.52
2024-05-09T04:58:59.205Z,58.77
2024-05-09T05:01:45.681Z,58.91
2024-05-09T05:04:32.735Z,58.43
2024-05-09T05:07:18.758Z,59.05
2024-05-09T05:10:05.943Z,58.72
2024-05-09T05:13:10.611Z,58.87
2024-05-09T05:15:57.850Z,59.03
2024-05-09T05:18:44.783Z,58.53
2024-05-09T05:21:31.239Z,58.76
2024-05-09T05:24:17.753Z,59.03
2024-05-09T05:27:03.802Z,59.03
2024-05-09T05:29:49.979Z,59.18
2024-05-09T05:32:36.607Z,58.63
2024-05-09T05:35:23.021Z,58.63
2024-05-09T05:38:10.528Z,58.71
2024-05-09T05:40:57.074Z,58.99
2024-05-09T05:43:43.569Z,58.66
2024-05-09T05:46:29.613Z,59.00
2024-05-09T05:49:15.999Z,58.91
2024-05-09T05:52:02.320Z,58.48
2024-05-09T05:54:49.426Z,58.81
2024-05-09T05:57:35.593Z,58.56
2024-05-09T06:00:29.398Z,58.49
2024-05-09T06:03:22.102Z,58.74
2024-05-09T06:06:08.578Z,58.77
2024-05-09T06:08:55.146Z,58.73
2024-05-09T06:11:42.659Z,58.92
2024-05-09T06:14:29.241Z,58.58
2024-05-09T06:17:15.730Z,58.89
2024-05-09T06:20:02.214Z,58.80
2024-05-09T06:22:48.740Z,58.83
2024-05-09T06:25:36.024Z,59.09
2024-05-09T06:28:22.291Z,58.75
2024-05-09T06:31:08.296Z,59.04
2024-05-09T06:33:54.531Z,58.79
2024-05-09T06:36:46.080Z,58.99
2024-05-09T06:39:32.732Z,59.19
2024-05-09T06:42:20.251Z,58.85
2024-05-09T06:45:06.871Z,58.95
2024-05-09T06:47:53.566Z,58.84
2024-05-09T06:50:40.456Z,59.06
2024-05-09T06:53:26.954Z,59.23
2024-05-09T06:56:14.394Z,58.95
2024-05-09T06:59:00.743Z,58.79
2024-05-09T07:01:47.259Z,58.75
2024-05-09T07:04:33.436Z,58.83
2024-05-09T07:07:19.929Z,58.75
2024-05-09T07:10:07.818Z,58.93
2024-05-09T07:12:56.396Z,59.10
2024-05-09T07:15:43.647Z,58.97
2024-05-09T07:18:31.802Z,58.62
2024-05-09T07:21:18.444Z,58.62
2024-05-09T07:24:05.312Z,58.59
2024-05-09T07:26:51.602Z,58.65
2024-05-09T07:29:38.665Z,58.28
2024-05-09T07:32:25.320Z,58.47
2024-05-09T07:35:11.738Z,58.21
2024-05-09T07:37:57.788Z,58.23
2024-05-09T07:40:44.326Z,58.16
2024-05-09T07:43:30.222Z,58.36
2024-05-09T07:47:14.226Z,58.10
2024-05-09T07:53:29.735Z,57.86
2024-05-09T07:55:20.031Z,57.76
2024-05-09T07:58:06.808Z,57.27
2024-05-09T08:00:54.410Z,57.44
2024-05-09T08:03:41.375Z,57.16
2024-05-09T08:06:28.137Z,57.00
2024-05-09T08:09:19.615Z,56.89
2024-05-09T08:12:09.499Z,56.73
2024-05-09T08:14:56.769Z,56.82
2024-05-09T08:17:43.082Z,56.67
2024-05-09T08:20:33.670Z,56.55
2024-05-09T08:23:23.806Z,56.47
2024-05-09T08:26:10.753Z,56.27
2024-05-09T08:28:56.747Z,56.51
2024-05-09T08:31:42.973Z,56.29
2024-05-09T08:34:29.593Z,56.18
2024-05-09T08:37:22.110Z,56.33
2024-05-09T08:40:23.480Z,55.97
2024-05-09T08:43:14.440Z,55.85
2024-05-09T08:46:02.521Z,55.83
2024-05-09T08:48:50.108Z,55.42
2024-05-09T08:51:41.572Z,55.76
2024-05-09T08:54:30.715Z,55.72
2024-05-09T08:57:17.334Z,55.73
2024-05-09T09:00:09.981Z,55.85
2024-05-09T09:03:00.291Z,55.40
2024-05-09T09:06:10.990Z,55.57
2024-05-09T09:08:57.446Z,55.45
2024-05-09T09:11:43.910Z,55.37
2024-05-09T09:14:30.409Z,55.34
2024-05-09T09:17:17.502Z,55.47
2024-05-09T09:20:04.475Z,55.09
2024-05-09T09:22:52.827Z,55.05
2024-05-09T09:25:42.487Z,54.99
2024-05-09T09:28:29.626Z,54.84
2024-05-09T09:31:19.868Z,54.64
2024-05-09T09:34:07.810Z,54.67
2024-05-09T09:37:07.009Z,54.77
2024-05-09T09:39:53.719Z,54.54
2024-05-09T09:42:41.179Z,54.49
2024-05-09T09:45:31.903Z,54.66
2024-05-09T09:48:20.057Z,54.45
2024-05-09T09:51:07.160Z,54.00
2024-05-09T09:53:53.557Z,54.25
2024-05-09T09:56:40.090Z,53.98
2024-05-09T09:59:26.198Z,53.96
2024-05-09T10:02:14.074Z,53.65
2024-05-09T10:05:00.839Z,53.51
2024-05-09T10:07:47.631Z,53.72
2024-05-09T10:10:35.183Z,53.42
2024-05-09T10:13:33.045Z,52.97
2024-05-09T10:16:23.254Z,52.99
2024-05-09T10:19:10.888Z,53.50
2024-05-09T10:22:04.275Z,53.27
2024-05-09T10:24:54.590Z,53.30
2024-05-09T10:27:40.919Z,53.42
2024-05-09T10:30:34.108Z,53.30
2024-05-09T10:33:22.713Z,53.38
2024-05-09T10:36:22.575Z,52.92
2024-05-09T10:39:09.031Z,53.13
2024-05-09T10:41:55.048Z,52.96
2024-05-09T10:44:42.699Z,53.04
2024-05-09T10:47:29.726Z,52.79
2024-05-09T10:50:22.590Z,52.91
2024-05-09T10:53:14.516Z,52.69
2024-05-09T10:56:01.759Z,52.62
2024-05-09T10:58:51.542Z,52.47
2024-05-09T11:01:37.583Z,52.41
2024-05-09T11:04:24.441Z,52.78
2024-05-09T11:07:13.652Z,52.37
2024-05-09T11:10:01.800Z,52.50
2024-05-09T11:12:48.137Z,52.38
2024-05-09T11:15:43.908Z,52.33
2024-05-09T11:18:35.257Z,52.53
2024-05-09T11:21:24.754Z,52.60
2024-05-09T11:24:11.956Z,52.53
2024-05-09T11:26:59.719Z,52.35
2024-05-09T11:29:47.541Z,51.89
2024-05-09T11:32:34.116Z,52.19
2024-05-09T11:35:21.173Z,52.23
2024-05-09T11:38:07.168Z,52.34
2024-05-09T11:40:53.459Z,52.11
2024-05-09T11:43:39.986Z,52.14
2024-05-09T11:46:26.491Z,52.12
2024-05-09T11:49:13.514Z,51.81
2024-05-09T11:51:59.990Z,52.03
2024-05-09T11:54:46.377Z,52.28
2024-05-09T11:57:33.206Z,51.73
2024-05-09T12:00:29.066Z,51.67
2024-05-09T12:03:25.504Z,51.74
2024-05-09T12:06:12.196Z,51.64
2024-05-09T12:08:58.728Z,51.61
2024-05-09T12:11:44.990Z,51.62
2024-05-09T12:14:30.824Z,51.25
2024-05-09T12:17:17.397Z,51.38
2024-05-09T12:20:07.088Z,50.99
2024-05-09T12:22:55.695Z,51.11
2024-05-09T12:25:42.541Z,50.85
2024-05-09T12:28:28.987Z,50.75
2024-05-09T12:31:15.575Z,50.56
2024-05-09T12:34:02.312Z,50.28
2024-05-09T12:36:48.904Z,50.21
2024-05-09T12:39:35.529Z,49.73
2024-05-09T12:42:27.278Z,49.77
2024-05-09T12:45:15.065Z,49.77
2024-05-09T12:48:01.726Z,49.87
2024-05-09T12:50:48.312Z,49.65
2024-05-09T12:53:36.417Z,49.23
2024-05-09T12:56:22.502Z,49.65
2024-05-09T12:59:08.496Z,49.23
2024-05-09T13:01:57.227Z,49.55
2024-05-09T13:04:45.627Z,49.31
2024-05-09T13:07:31.874Z,49.27
2024-05-09T13:10:28.617Z,49.38
2024-05-09T13:13:18.978Z,49.23
2024-05-09T13:16:05.933Z,49.07
2024-05-09T13:18:58.978Z,48.63
2024-05-09T13:21:47.229Z,49.28
2024-05-09T13:24:33.384Z,48.83
2024-05-09T13:27:21.150Z,48.96
2024-05-09T13:30:11.899Z,48.76
2024-05-09T13:33:01.056Z,48.70
2024-05-09T13:35:50.386Z,48.04
2024-05-09T13:38:37.544Z,48.20
2024-05-09T13:41:23.689Z,47.76
2024-05-09T13:44:10.032Z,47.90
2024-05-09T13:46:56.430Z,47.36
2024-05-09T13:49:43.259Z,47.74
2024-05-09T13:52:29.586Z,47.46
2024-05-09T13:55:16.359Z,47.50
2024-05-09T13:58:03.477Z,47.38
2024-05-09T14:00:49.964Z,47.04
2024-05-09T14:03:36.556Z,47.09
2024-05-09T14:06:23.055Z,46.79
2024-05-09T14:09:09.975Z,46.32
2024-05-09T14:11:56.408Z,46.41
2024-05-09T14:14:43.007Z,46.10
2024-05-09T14:17:29.110Z,45.83
2024-05-09T14:20:23.809Z,45.91
2024-05-09T14:23:17.986Z,45.87
2024-05-09T14:26:04.934Z,45.62
2024-05-09T14:28:51.116Z,45.63
2024-05-09T14:31:39.379Z,45.70
2024-05-09T14:34:26.131Z,45.32
2024-05-09T14:37:12.803Z,45.22
2024-05-09T14:39:59.698Z,45.11
2024-05-09T14:42:46.230Z,45.16
2024-05-09T14:45:32.855Z,45.58
2024-05-09T14:48:20.271Z,45.44
2024-05-09T14:51:06.457Z,45.57
2024-05-09T14:53:52.732Z,45.78
2024-05-09T14:56:39.154Z,45.52
2024-05-09T14:59:25.042Z,45.84
2024-05-09T15:02:11.812Z,45.52
2024-05-09T15:04:58.852Z,45.85
2024-05-09T15:07:45.576Z,45.72
2024-05-09T15:10:35.558Z,46.00
2024-05-09T15:13:24.727Z,45.89
2024-05-09T15:16:15.411Z,45.80
2024-05-09T15:19:11.856Z,45.53
2024-05-09T15:22:03.620Z,45.82
2024-05-09T15:24:50.094Z,45.84
2024-05-09T15:27:36.660Z,45.50
2024-05-09T15:30:30.237Z,46.09
2024-05-09T15:33:19.523Z,46.09
2024-05-09T15:36:06.241Z,45.96
2024-05-09T15:38:52.778Z,46.39
2024-05-09T15:41:39.262Z,46.29
2024-05-09T15:44:25.864Z,46.25
2024-05-09T15:47:11.842Z,46.65
2024-05-09T15:49:58.545Z,46.51
2024-05-09T15:52:45.157Z,46.14
2024-05-09T15:55:34.714Z,46.54
2024-05-09T15:58:22.089Z,46.71
2024-05-09T16:01:08.679Z,47.08
2024-05-09T16:03:55.302Z,47.02
2024-05-09T16:06:41.862Z,47.06
2024-05-09T16:09:28.428Z,47.18
2024-05-09T16:12:14.926Z,47.44
2024-05-09T16:15:01.176Z,47.41
2024-05-09T16:17:47.807Z,47.45
2024-05-09T16:20:40.045Z,47.83
2024-05-09T16:23:32.250Z,47.66
2024-05-09T16:26:19.007Z,47.76
2024-05-09T16:29:05.137Z,47.80
2024-05-09T16:31:51.715Z,47.83
2024-05-09T16:34:37.919Z,48.10
2024-05-09T16:37:28.192Z,48.03
2024-05-09T16:40:24.882Z,48.13
2024-05-09T16:43:19.860Z,48.21
2024-05-09T16:46:06.610Z,48.16
2024-05-09T16:48:53.077Z,48.31
2024-05-09T16:51:39.617Z,48.33
2024-05-09T16:54:26.225Z,48.57
2024-05-09T16:57:12.276Z,48.60
2024-05-09T16:59:58.443Z,48.71
2024-05-09T17:02:45.134Z,48.76
2024-05-09T17:05:32.091Z,48.65
2024-05-09T17:08:18.696Z,48.62
2024-05-09T17:11:05.652Z,48.83
2024-05-09T17:13:52.205Z,48.53
2024-05-09T17:16:38.357Z,48.75
2024-05-09T17:19:24.986Z,48.68
2024-05-09T17:22:11.724Z,49.10
2024-05-09T17:24:58.135Z,49.02
2024-05-09T17:27:44.727Z,48.97
2024-05-09T17:30:35.552Z,48.95
2024-05-09T17:33:24.447Z,49.23
2024-05-09T17:36:10.881Z,48.99
2024-05-09T17:38:57.010Z,49.19
2024-05-09T17:41:46.187Z,49.11
2024-05-09T17:44:32.718Z,49.53
2024-05-09T17:47:19.130Z,49.34
2024-05-09T17:50:11.735Z,49.33
2024-05-09T17:53:04.003Z,49.46
2024-05-09T17:55:56.372Z,49.25
2024-05-09T17:58:44.575Z,49.75
2024-05-09T18:01:32.067Z,49.61
2024-05-09T18:04:20.376Z,49.84
2024-05-09T18:07:08.082Z,49.60
2024-05-09T18:09:54.862Z,49.79
2024-05-09T18:12:41.587Z,49.62
2024-05-09T18:15:28.279Z,49.64
2024-05-09T18:18:14.985Z,49.57
2024-05-09T18:21:01.565Z,49.66
2024-05-09T18:23:47.638Z,49.94
2024-05-09T18:26:34.139Z,50.00
2024-05-09T18:29:22.286Z,49.97
2024-05-09T18:32:09.098Z,49.81
2024-05-09T18:34:55.600Z,50.29
2024-05-09T18:37:43.179Z,50.12
2024-05-09T18:40:34.418Z,50.00
2024-05-09T18:43:28.911Z,50.10
2024-05-09T18:46:21.614Z,50.40
2024-05-09T18:49:08.553Z,50.18
2024-05-09T18:51:54.859Z,50.49
2024-05-09T18:54:41.450Z,50.09
2024-05-09T18:57:28.686Z,50.55
2024-05-09T19:00:26.660Z,50.44
2024-05-09T19:03:20.245Z,50.49
2024-05-09T19:06:07.279Z,50.50
2024-05-09T19:08:53.785Z,50.49
2024-05-09T19:11:40.242Z,50.27
2024-05-09T19:14:26.512Z,50.70
2024-05-09T19:17:12.550Z,50.80
2024-05-09T19:19:58.705Z,50.47
2024-05-09T19:22:45.307Z,50.54
2024-05-09T19:25:32.499Z,50.48
2024-05-09T19:28:20.867Z,50.51
2024-05-09T19:31:07.338Z,50.47
2024-05-09T19:33:53.594Z,50.24
2024-05-09T19:36:40.286Z,50.39
2024-05-09T19:39:26.977Z,50.42
2024-05-09T19:42:13.567Z,50.60
2024-05-09T19:45:00.127Z,50.87
2024-05-09T19:47:47.176Z,50.45
2024-05-09T19:50:40.994Z,50.58
2024-05-09T19:53:30.885Z,50.80
2024-05-09T19:56:17.379Z,50.72
2024-05-09T19:59:04.407Z,50.58
2024-05-09T20:01:50.652Z,50.54
2024-05-09T20:04:37.445Z,50.74
2024-05-09T20:07:23.946Z,50.93
2024-05-09T20:10:16.725Z,50.81
2024-05-09T20:13:09.647Z,50.50
2024-05-09T20:15:56.334Z,50.94
2024-05-09T20:18:43.032Z,50.34
2024-05-09T20:21:30.783Z,50.58
2024-05-09T20:24:17.418Z,51.28
2024-05-09T20:27:04.259Z,50.96
2024-05-09T20:29:50.765Z,51.23
2024-05-09T20:32:37.464Z,50.83
2024-05-09T20:35:24.026Z,50.94
2024-05-09T20:38:10.272Z,50.98
2024-05-09T20:40:56.915Z,51.28
2024-05-09T20:43:44.947Z,50.91
2024-05-09T20:46:31.133Z,50.66
2024-05-09T20:49:18.327Z,51.01
2024-05-09T20:52:05.215Z,51.00
2024-05-09T20:54:51.578Z,51.14
2024-05-09T20:57:38.266Z,51.14
2024-05-09T21:00:35.118Z,51.20
2024-05-09T21:03:26.216Z,51.16
2024-05-09T21:06:12.982Z,51.17
2024-05-09T21:08:59.352Z,51.52
2024-05-09T21:11:46.061Z,51.29
2024-05-09T21:14:32.742Z,51.38
2024-05-09T21:17:18.748Z,51.30
2024-05-09T21:20:11.410Z,51.50
2024-05-09T21:23:01.876Z,51.73
2024-05-09T21:25:48.882Z,51.57
2024-05-09T21:28:35.133Z,51.73
2024-05-09T21:31:21.663Z,51.61
2024-05-09T21:34:08.185Z,51.51
2024-05-09T21:36:55.417Z,51.82
2024-05-09T21:39:41.822Z,51.77
2024-05-09T21:42:28.331Z,51.41
2024-05-09T21:45:15.016Z,51.67
2024-05-09T21:48:03.673Z,51.63
2024-05-09T21:50:49.911Z,51.63
2024-05-09T21:53:37.806Z,51.56
2024-05-09T21:56:25.313Z,51.72
2024-05-09T21:59:11.438Z,51.61
2024-05-09T22:01:58.929Z,51.54
2024-05-09T22:04:45.388Z,51.63
2024-05-09T22:07:31.865Z,51.76
2024-05-09T22:10:25.674Z,51.61
2024-05-09T22:13:18.822Z,51.93
2024-05-09T22:16:05.449Z,51.65
2024-05-09T22:18:51.959Z,51.80
2024-05-09T22:21:38.463Z,51.75
2024-05-09T22:24:25.092Z,51.78
2024-05-09T22:27:12.032Z,51.86
2024-05-09T22:29:58.314Z,52.00
2024-05-09T22:32:44.279Z,51.88
2024-05-09T22:35:30.811Z,51.72
2024-05-09T22:38:16.888Z,51.81
2024-05-09T22:41:07.176Z,52.36
2024-05-09T22:43:53.650Z,52.21
2024-05-09T22:46:39.872Z,52.27
2024-05-09T22:49:25.969Z,51.96
2024-05-09T22:52:12.495Z,52.03
2024-05-09T22:54:59.248Z,52.30
2024-05-09T22:57:45.509Z,52.36
2024-05-09T23:00:33.314Z,51.91
2024-05-09T23:03:21.815Z,52.43
2024-05-09T23:06:08.765Z,52.36
2024-05-09T23:08:54.964Z,52.15
2024-05-09T23:11:42.099Z,51.96
2024-05-09T23:14:28.199Z,51.87
2024-05-09T23:17:14.265Z,52.22
2024-05-09T23:20:00.932Z,52.17
2024-05-09T23:22:47.695Z,52.04
2024-05-09T23:25:34.546Z,52.48
2024-05-09T23:28:20.815Z,52.31
2024-05-09T23:31:07.241Z,52.56
2024-05-09T23:33:55.290Z,52.30
2024-05-09T23:36:42.413Z,52.56
2024-05-09T23:39:28.780Z,52.31
2024-05-09T23:42:14.847Z,52.40
2024-05-09T23:45:01.051Z,52.58
2024-05-09T23:47:47.502Z,52.32
2024-05-09T23:50:36.911Z,52.91
2024-05-09T23:53:24.983Z,52.55
2024-05-09T23:56:16.845Z,52.54
2024-05-09T23:59:02.885Z,52.28
